Terminal Aerodrome Forecast
Issued by NWS

Home | Current Version | Previous Version | Text Only | Print | Product List | Glossary On
Versions: 1 2 3 4 5 6 7 8 9 10 11 12 13 14 15 16
651
FTUS43 KAPX 061127
TAFMBL
TAF
KMBL 061127Z 0612/0712 24010KT 5SM -SHSN BKN019 OVC050
     FM061500 27011KT 3SM -SHSN OVC018
     FM070000 22005KT P6SM -SHSN OVC015
     FM070700 22010G22KT P6SM SCT020 OVC060
      AMD LTD TO CLD VIS AND WIND=

USA.gov is the U.S. government's official web portal to all federal, state and local government web resources and services.